sensor_id;sensor_type;location;lat;lon;timestamp;P1;durP1;ratioP1;P2;durP2;ratioP2
35330;SDS011;21441;52.190;20.910;2022-09-09T00:00:26;8.77;;;5.25;;
35330;SDS011;21441;52.190;20.910;2022-09-09T00:03:19;7.60;;;4.15;;
35330;SDS011;21441;52.190;20.910;2022-09-09T00:05:52;8.07;;;4.13;;
35330;SDS011;21441;52.190;20.910;2022-09-09T00:08:28;6.75;;;4.70;;
35330;SDS011;21441;52.190;20.910;2022-09-09T00:11:07;14.07;;;6.32;;
35330;SDS011;21441;52.190;20.910;2022-09-09T00:13:39;6.88;;;3.83;;
35330;SDS011;21441;52.190;20.910;2022-09-09T00:16:12;10.10;;;5.28;;
35330;SDS011;21441;52.190;20.910;2022-09-09T00:18:47;6.43;;;4.45;;
35330;SDS011;21441;52.190;20.910;2022-09-09T00:21:19;8.45;;;5.85;;
35330;SDS011;21441;52.190;20.910;2022-09-09T00:23:53;12.40;;;5.90;;
35330;SDS011;21441;52.190;20.910;2022-09-09T00:26:24;10.45;;;6.65;;
35330;SDS011;21441;52.190;20.910;2022-09-09T00:29:00;10.48;;;5.93;;
35330;SDS011;21441;52.190;20.910;2022-09-09T00:31:31;8.70;;;5.22;;
35330;SDS011;21441;52.190;20.910;2022-09-09T00:34:00;12.82;;;6.75;;
35330;SDS011;21441;52.190;20.910;2022-09-09T00:36:32;13.85;;;6.60;;
35330;SDS011;21441;52.190;20.910;2022-09-09T00:39:00;11.70;;;6.75;;
35330;SDS011;21441;52.190;20.910;2022-09-09T00:41:31;9.27;;;6.32;;
35330;SDS011;21441;52.190;20.910;2022-09-09T00:44:15;12.63;;;7.00;;
35330;SDS011;21441;52.190;20.910;2022-09-09T00:46:54;10.77;;;6.70;;
35330;SDS011;21441;52.190;20.910;2022-09-09T00:49:32;11.88;;;6.95;;
35330;SDS011;21441;52.190;20.910;2022-09-09T00:52:10;13.95;;;7.18;;
35330;SDS011;21441;52.190;20.910;2022-09-09T00:54:50;11.25;;;7.30;;
35330;SDS011;21441;52.190;20.910;2022-09-09T00:57:27;14.98;;;7.88;;
35330;SDS011;21441;52.190;20.910;2022-09-09T00:59:57;10.60;;;6.93;;
35330;SDS011;21441;52.190;20.910;2022-09-09T01:02:29;13.23;;;7.30;;
35330;SDS011;21441;52.190;20.910;2022-09-09T01:05:07;9.95;;;6.72;;
35330;SDS011;21441;52.190;20.910;2022-09-09T01:07:39;11.13;;;7.70;;
35330;SDS011;21441;52.190;20.910;2022-09-09T01:10:14;13.15;;;7.80;;
35330;SDS011;21441;52.190;20.910;2022-09-09T01:12:53;13.05;;;7.38;;
35330;SDS011;21441;52.190;20.910;2022-09-09T01:15:26;13.60;;;7.63;;
35330;SDS011;21441;52.190;20.910;2022-09-09T01:17:58;13.05;;;7.93;;
35330;SDS011;21441;52.190;20.910;2022-09-09T01:20:29;11.63;;;7.78;;
35330;SDS011;21441;52.190;20.910;2022-09-09T01:23:08;15.50;;;8.40;;
35330;SDS011;21441;52.190;20.910;2022-09-09T01:28:36;11.43;;;7.15;;
35330;SDS011;21441;52.190;20.910;2022-09-09T01:31:05;15.93;;;9.13;;
35330;SDS011;21441;52.190;20.910;2022-09-09T01:36:03;12.77;;;8.82;;
35330;SDS011;21441;52.190;20.910;2022-09-09T01:38:34;15.07;;;8.63;;
35330;SDS011;21441;52.190;20.910;2022-09-09T01:41:02;13.55;;;8.65;;
35330;SDS011;21441;52.190;20.910;2022-09-09T01:43:31;13.43;;;9.13;;
35330;SDS011;21441;52.190;20.910;2022-09-09T01:45:59;14.00;;;8.30;;
35330;SDS011;21441;52.190;20.910;2022-09-09T01:48:27;13.32;;;8.80;;
35330;SDS011;21441;52.190;20.910;2022-09-09T01:50:56;12.50;;;8.30;;
35330;SDS011;21441;52.190;20.910;2022-09-09T01:53:23;14.05;;;8.60;;
35330;SDS011;21441;52.190;20.910;2022-09-09T01:55:54;13.38;;;8.95;;
35330;SDS011;21441;52.190;20.910;2022-09-09T01:58:34;13.00;;;8.85;;
35330;SDS011;21441;52.190;20.910;2022-09-09T02:01:10;15.52;;;9.57;;
35330;SDS011;21441;52.190;20.910;2022-09-09T02:03:43;15.68;;;8.98;;
35330;SDS011;21441;52.190;20.910;2022-09-09T02:06:16;10.57;;;7.70;;
35330;SDS011;21441;52.190;20.910;2022-09-09T02:08:52;14.05;;;8.38;;
35330;SDS011;21441;52.190;20.910;2022-09-09T02:11:23;12.85;;;8.65;;
35330;SDS011;21441;52.190;20.910;2022-09-09T02:13:52;13.35;;;8.93;;
35330;SDS011;21441;52.190;20.910;2022-09-09T02:16:23;13.75;;;9.50;;
35330;SDS011;21441;52.190;20.910;2022-09-09T02:18:55;13.88;;;9.93;;
35330;SDS011;21441;52.190;20.910;2022-09-09T02:21:25;13.38;;;8.85;;
35330;SDS011;21441;52.190;20.910;2022-09-09T02:26:23;15.80;;;8.43;;
35330;SDS011;21441;52.190;20.910;2022-09-09T02:28:54;11.82;;;9.57;;
35330;SDS011;21441;52.190;20.910;2022-09-09T02:31:24;12.10;;;9.38;;
35330;SDS011;21441;52.190;20.910;2022-09-09T02:33:52;15.18;;;10.15;;
35330;SDS011;21441;52.190;20.910;2022-09-09T02:36:23;17.98;;;9.73;;
35330;SDS011;21441;52.190;20.910;2022-09-09T02:38:52;16.02;;;9.63;;
35330;SDS011;21441;52.190;20.910;2022-09-09T02:41:19;14.20;;;9.95;;
35330;SDS011;21441;52.190;20.910;2022-09-09T02:43:50;16.63;;;9.63;;
35330;SDS011;21441;52.190;20.910;2022-09-09T02:46:24;15.68;;;10.90;;
35330;SDS011;21441;52.190;20.910;2022-09-09T02:48:59;15.65;;;11.60;;
35330;SDS011;21441;52.190;20.910;2022-09-09T02:51:30;16.23;;;10.55;;
35330;SDS011;21441;52.190;20.910;2022-09-09T02:54:04;15.90;;;10.85;;
35330;SDS011;21441;52.190;20.910;2022-09-09T02:56:40;14.77;;;10.20;;
35330;SDS011;21441;52.190;20.910;2022-09-09T02:59:11;15.80;;;10.77;;
35330;SDS011;21441;52.190;20.910;2022-09-09T03:01:39;17.33;;;10.95;;
35330;SDS011;21441;52.190;20.910;2022-09-09T03:04:06;18.85;;;11.48;;
35330;SDS011;21441;52.190;20.910;2022-09-09T03:06:33;14.75;;;9.55;;
35330;SDS011;21441;52.190;20.910;2022-09-09T03:09:00;13.40;;;8.63;;
35330;SDS011;21441;52.190;20.910;2022-09-09T03:11:28;13.75;;;9.88;;
35330;SDS011;21441;52.190;20.910;2022-09-09T03:13:55;13.40;;;9.15;;
35330;SDS011;21441;52.190;20.910;2022-09-09T03:16:22;13.02;;;9.35;;
35330;SDS011;21441;52.190;20.910;2022-09-09T03:18:50;13.40;;;9.40;;
35330;SDS011;21441;52.190;20.910;2022-09-09T03:21:18;12.15;;;10.35;;
35330;SDS011;21441;52.190;20.910;2022-09-09T03:23:44;13.27;;;10.50;;
35330;SDS011;21441;52.190;20.910;2022-09-09T03:26:11;11.15;;;9.25;;
35330;SDS011;21441;52.190;20.910;2022-09-09T03:28:40;12.18;;;8.52;;
35330;SDS011;21441;52.190;20.910;2022-09-09T03:31:07;11.93;;;8.85;;
35330;SDS011;21441;52.190;20.910;2022-09-09T03:33:35;11.43;;;8.65;;
35330;SDS011;21441;52.190;20.910;2022-09-09T03:36:04;12.57;;;8.68;;
35330;SDS011;21441;52.190;20.910;2022-09-09T03:38:32;11.38;;;9.52;;
35330;SDS011;21441;52.190;20.910;2022-09-09T03:41:00;12.77;;;9.50;;
35330;SDS011;21441;52.190;20.910;2022-09-09T03:43:28;15.02;;;8.50;;
35330;SDS011;21441;52.190;20.910;2022-09-09T03:45:55;11.13;;;8.07;;
35330;SDS011;21441;52.190;20.910;2022-09-09T03:48:23;11.23;;;8.63;;
35330;SDS011;21441;52.190;20.910;2022-09-09T03:50:51;13.10;;;10.07;;
35330;SDS011;21441;52.190;20.910;2022-09-09T03:53:23;13.40;;;9.45;;
35330;SDS011;21441;52.190;20.910;2022-09-09T03:55:52;16.67;;;9.75;;
35330;SDS011;21441;52.190;20.910;2022-09-09T03:58:21;10.85;;;8.15;;
35330;SDS011;21441;52.190;20.910;2022-09-09T04:00:53;12.70;;;9.43;;
35330;SDS011;21441;52.190;20.910;2022-09-09T04:03:20;11.13;;;8.10;;
35330;SDS011;21441;52.190;20.910;2022-09-09T04:05:48;11.13;;;8.55;;
35330;SDS011;21441;52.190;20.910;2022-09-09T04:08:15;11.93;;;9.00;;
35330;SDS011;21441;52.190;20.910;2022-09-09T04:10:43;11.50;;;9.25;;
35330;SDS011;21441;52.190;20.910;2022-09-09T04:13:11;13.73;;;9.70;;
35330;SDS011;21441;52.190;20.910;2022-09-09T04:15:40;12.00;;;8.70;;
35330;SDS011;21441;52.190;20.910;2022-09-09T04:18:07;12.45;;;9.38;;
35330;SDS011;21441;52.190;20.910;2022-09-09T04:20:35;13.43;;;9.55;;
35330;SDS011;21441;52.190;20.910;2022-09-09T04:23:02;14.95;;;10.13;;
35330;SDS011;21441;52.190;20.910;2022-09-09T04:25:28;11.40;;;8.70;;
35330;SDS011;21441;52.190;20.910;2022-09-09T04:27:57;11.88;;;8.88;;
35330;SDS011;21441;52.190;20.910;2022-09-09T04:30:24;11.20;;;8.85;;
35330;SDS011;21441;52.190;20.910;2022-09-09T04:32:52;12.90;;;9.55;;
35330;SDS011;21441;52.190;20.910;2022-09-09T04:35:19;9.35;;;7.88;;
35330;SDS011;21441;52.190;20.910;2022-09-09T04:37:46;12.82;;;9.10;;
35330;SDS011;21441;52.190;20.910;2022-09-09T04:40:14;10.00;;;8.40;;
35330;SDS011;21441;52.190;20.910;2022-09-09T04:42:41;13.50;;;10.45;;
35330;SDS011;21441;52.190;20.910;2022-09-09T04:45:10;11.98;;;8.95;;
35330;SDS011;21441;52.190;20.910;2022-09-09T04:47:38;9.52;;;7.32;;
35330;SDS011;21441;52.190;20.910;2022-09-09T04:50:06;11.07;;;8.35;;
35330;SDS011;21441;52.190;20.910;2022-09-09T04:52:34;10.65;;;8.80;;
35330;SDS011;21441;52.190;20.910;2022-09-09T04:55:02;8.55;;;7.10;;
35330;SDS011;21441;52.190;20.910;2022-09-09T04:57:30;9.65;;;8.00;;
35330;SDS011;21441;52.190;20.910;2022-09-09T04:59:58;11.43;;;8.50;;
35330;SDS011;21441;52.190;20.910;2022-09-09T05:02:26;8.80;;;7.00;;
35330;SDS011;21441;52.190;20.910;2022-09-09T05:04:54;7.97;;;7.18;;
35330;SDS011;21441;52.190;20.910;2022-09-09T05:07:21;12.70;;;7.63;;
35330;SDS011;21441;52.190;20.910;2022-09-09T05:09:48;10.27;;;8.15;;
35330;SDS011;21441;52.190;20.910;2022-09-09T05:12:15;10.20;;;7.40;;
35330;SDS011;21441;52.190;20.910;2022-09-09T05:14:43;11.73;;;7.78;;
35330;SDS011;21441;52.190;20.910;2022-09-09T05:17:10;12.25;;;8.00;;
35330;SDS011;21441;52.190;20.910;2022-09-09T05:19:40;9.13;;;7.28;;
35330;SDS011;21441;52.190;20.910;2022-09-09T05:22:07;8.80;;;6.93;;
35330;SDS011;21441;52.190;20.910;2022-09-09T05:24:33;9.13;;;7.90;;
35330;SDS011;21441;52.190;20.910;2022-09-09T05:27:02;9.27;;;7.75;;
35330;SDS011;21441;52.190;20.910;2022-09-09T05:29:31;9.85;;;7.03;;
35330;SDS011;21441;52.190;20.910;2022-09-09T05:31:58;16.50;;;8.10;;
35330;SDS011;21441;52.190;20.910;2022-09-09T05:34:25;11.48;;;7.63;;
35330;SDS011;21441;52.190;20.910;2022-09-09T05:36:53;8.18;;;6.97;;
35330;SDS011;21441;52.190;20.910;2022-09-09T05:39:20;10.15;;;8.18;;
35330;SDS011;21441;52.190;20.910;2022-09-09T05:41:47;8.95;;;8.05;;
35330;SDS011;21441;52.190;20.910;2022-09-09T05:44:14;11.50;;;8.00;;
35330;SDS011;21441;52.190;20.910;2022-09-09T05:46:41;8.27;;;7.30;;
35330;SDS011;21441;52.190;20.910;2022-09-09T05:49:08;9.30;;;8.15;;
35330;SDS011;21441;52.190;20.910;2022-09-09T05:51:35;9.32;;;7.03;;
35330;SDS011;21441;52.190;20.910;2022-09-09T05:54:04;9.90;;;7.97;;
35330;SDS011;21441;52.190;20.910;2022-09-09T05:56:31;8.88;;;7.53;;
35330;SDS011;21441;52.190;20.910;2022-09-09T05:58:58;11.40;;;8.48;;
35330;SDS011;21441;52.190;20.910;2022-09-09T06:01:26;10.60;;;7.97;;
35330;SDS011;21441;52.190;20.910;2022-09-09T06:03:55;12.88;;;10.10;;
35330;SDS011;21441;52.190;20.910;2022-09-09T06:06:22;11.23;;;8.82;;
35330;SDS011;21441;52.190;20.910;2022-09-09T06:08:51;10.52;;;9.43;;
35330;SDS011;21441;52.190;20.910;2022-09-09T06:11:21;9.25;;;8.23;;
35330;SDS011;21441;52.190;20.910;2022-09-09T06:13:49;10.20;;;8.07;;
35330;SDS011;21441;52.190;20.910;2022-09-09T06:16:20;10.70;;;9.30;;
35330;SDS011;21441;52.190;20.910;2022-09-09T06:18:49;11.75;;;8.50;;
35330;SDS011;21441;52.190;20.910;2022-09-09T06:21:16;11.98;;;8.35;;
35330;SDS011;21441;52.190;20.910;2022-09-09T06:23:45;10.57;;;8.77;;
35330;SDS011;21441;52.190;20.910;2022-09-09T06:26:13;9.70;;;8.70;;
35330;SDS011;21441;52.190;20.910;2022-09-09T06:28:44;9.13;;;8.10;;
35330;SDS011;21441;52.190;20.910;2022-09-09T06:31:11;10.55;;;8.43;;
35330;SDS011;21441;52.190;20.910;2022-09-09T06:33:40;12.65;;;8.57;;
35330;SDS011;21441;52.190;20.910;2022-09-09T06:36:10;10.90;;;8.40;;
35330;SDS011;21441;52.190;20.910;2022-09-09T06:38:38;13.15;;;9.35;;
35330;SDS011;21441;52.190;20.910;2022-09-09T06:41:05;11.63;;;8.55;;
35330;SDS011;21441;52.190;20.910;2022-09-09T06:43:32;10.05;;;8.52;;
35330;SDS011;21441;52.190;20.910;2022-09-09T06:46:02;10.13;;;9.00;;
35330;SDS011;21441;52.190;20.910;2022-09-09T06:48:31;11.45;;;9.38;;
35330;SDS011;21441;52.190;20.910;2022-09-09T06:51:01;11.73;;;9.32;;
35330;SDS011;21441;52.190;20.910;2022-09-09T06:53:30;10.80;;;9.07;;
35330;SDS011;21441;52.190;20.910;2022-09-09T06:55:59;11.48;;;7.88;;
35330;SDS011;21441;52.190;20.910;2022-09-09T06:58:26;10.40;;;9.30;;
35330;SDS011;21441;52.190;20.910;2022-09-09T07:00:53;12.57;;;10.10;;
35330;SDS011;21441;52.190;20.910;2022-09-09T07:03:29;10.13;;;8.75;;
35330;SDS011;21441;52.190;20.910;2022-09-09T07:05:56;11.95;;;9.85;;
35330;SDS011;21441;52.190;20.910;2022-09-09T07:08:24;11.48;;;9.48;;
35330;SDS011;21441;52.190;20.910;2022-09-09T07:10:52;12.00;;;9.15;;
35330;SDS011;21441;52.190;20.910;2022-09-09T07:13:19;12.07;;;10.40;;
35330;SDS011;21441;52.190;20.910;2022-09-09T07:15:50;11.15;;;10.05;;
35330;SDS011;21441;52.190;20.910;2022-09-09T07:18:19;13.95;;;10.65;;
35330;SDS011;21441;52.190;20.910;2022-09-09T07:20:52;13.73;;;10.80;;
35330;SDS011;21441;52.190;20.910;2022-09-09T07:23:20;15.20;;;11.00;;
35330;SDS011;21441;52.190;20.910;2022-09-09T07:25:47;15.18;;;12.30;;
35330;SDS011;21441;52.190;20.910;2022-09-09T07:28:14;13.15;;;11.35;;
35330;SDS011;21441;52.190;20.910;2022-09-09T07:30:41;14.02;;;10.50;;
35330;SDS011;21441;52.190;20.910;2022-09-09T07:33:08;14.20;;;10.40;;
35330;SDS011;21441;52.190;20.910;2022-09-09T07:35:36;12.57;;;10.65;;
35330;SDS011;21441;52.190;20.910;2022-09-09T07:38:03;16.45;;;12.43;;
35330;SDS011;21441;52.190;20.910;2022-09-09T07:40:32;14.38;;;11.77;;
35330;SDS011;21441;52.190;20.910;2022-09-09T07:42:59;16.08;;;10.93;;
35330;SDS011;21441;52.190;20.910;2022-09-09T07:45:26;13.30;;;11.90;;
35330;SDS011;21441;52.190;20.910;2022-09-09T07:47:54;12.60;;;11.30;;
35330;SDS011;21441;52.190;20.910;2022-09-09T07:50:22;15.10;;;11.57;;
35330;SDS011;21441;52.190;20.910;2022-09-09T07:52:50;15.18;;;13.02;;
35330;SDS011;21441;52.190;20.910;2022-09-09T07:55:18;16.83;;;12.43;;
35330;SDS011;21441;52.190;20.910;2022-09-09T07:57:45;15.20;;;12.00;;
35330;SDS011;21441;52.190;20.910;2022-09-09T08:00:13;17.35;;;13.85;;
35330;SDS011;21441;52.190;20.910;2022-09-09T08:02:41;17.33;;;12.82;;
35330;SDS011;21441;52.190;20.910;2022-09-09T08:05:07;17.92;;;13.95;;
35330;SDS011;21441;52.190;20.910;2022-09-09T08:07:35;19.27;;;14.55;;
35330;SDS011;21441;52.190;20.910;2022-09-09T08:10:03;20.73;;;15.10;;
35330;SDS011;21441;52.190;20.910;2022-09-09T08:12:31;22.75;;;15.00;;
35330;SDS011;21441;52.190;20.910;2022-09-09T08:14:58;23.23;;;15.75;;
35330;SDS011;21441;52.190;20.910;2022-09-09T08:17:25;18.05;;;15.23;;
35330;SDS011;21441;52.190;20.910;2022-09-09T08:19:52;20.27;;;13.68;;
35330;SDS011;21441;52.190;20.910;2022-09-09T08:22:19;18.65;;;14.05;;
35330;SDS011;21441;52.190;20.910;2022-09-09T08:24:47;18.67;;;14.25;;
35330;SDS011;21441;52.190;20.910;2022-09-09T08:27:15;19.73;;;16.25;;
35330;SDS011;21441;52.190;20.910;2022-09-09T08:29:42;20.52;;;15.80;;
35330;SDS011;21441;52.190;20.910;2022-09-09T08:32:10;26.13;;;16.20;;
35330;SDS011;21441;52.190;20.910;2022-09-09T08:34:36;21.20;;;16.33;;
35330;SDS011;21441;52.190;20.910;2022-09-09T08:37:04;22.52;;;15.95;;
35330;SDS011;21441;52.190;20.910;2022-09-09T08:39:30;21.20;;;15.70;;
35330;SDS011;21441;52.190;20.910;2022-09-09T08:45:12;21.15;;;16.80;;
35330;SDS011;21441;52.190;20.910;2022-09-09T08:47:51;19.85;;;15.68;;
35330;SDS011;21441;52.190;20.910;2022-09-09T08:50:38;22.92;;;15.88;;
35330;SDS011;21441;52.190;20.910;2022-09-09T08:53:09;21.65;;;16.58;;
35330;SDS011;21441;52.190;20.910;2022-09-09T08:55:42;26.83;;;17.20;;
35330;SDS011;21441;52.190;20.910;2022-09-09T08:58:15;23.23;;;17.33;;
35330;SDS011;21441;52.190;20.910;2022-09-09T09:00:47;23.73;;;17.27;;
35330;SDS011;21441;52.190;20.910;2022-09-09T09:03:36;27.02;;;19.38;;
35330;SDS011;21441;52.190;20.910;2022-09-09T09:06:15;26.17;;;18.55;;
35330;SDS011;21441;52.190;20.910;2022-09-09T09:08:51;29.20;;;17.67;;
35330;SDS011;21441;52.190;20.910;2022-09-09T09:11:26;25.42;;;17.27;;
35330;SDS011;21441;52.190;20.910;2022-09-09T09:13:56;22.17;;;16.98;;
35330;SDS011;21441;52.190;20.910;2022-09-09T09:16:29;28.15;;;17.35;;
35330;SDS011;21441;52.190;20.910;2022-09-09T09:18:59;23.80;;;17.55;;
35330;SDS011;21441;52.190;20.910;2022-09-09T09:21:29;28.35;;;18.02;;
35330;SDS011;21441;52.190;20.910;2022-09-09T09:24:04;28.80;;;19.52;;
35330;SDS011;21441;52.190;20.910;2022-09-09T09:26:36;32.00;;;22.10;;
35330;SDS011;21441;52.190;20.910;2022-09-09T09:29:08;27.17;;;18.38;;
35330;SDS011;21441;52.190;20.910;2022-09-09T09:31:38;25.92;;;18.08;;
35330;SDS011;21441;52.190;20.910;2022-09-09T09:34:07;24.88;;;17.98;;
35330;SDS011;21441;52.190;20.910;2022-09-09T09:36:38;27.05;;;18.33;;
35330;SDS011;21441;52.190;20.910;2022-09-09T09:39:08;27.90;;;19.20;;
35330;SDS011;21441;52.190;20.910;2022-09-09T09:41:37;26.55;;;17.77;;
35330;SDS011;21441;52.190;20.910;2022-09-09T09:44:19;28.75;;;18.70;;
35330;SDS011;21441;52.190;20.910;2022-09-09T09:46:50;24.50;;;18.02;;
35330;SDS011;21441;52.190;20.910;2022-09-09T09:49:17;27.45;;;19.20;;
35330;SDS011;21441;52.190;20.910;2022-09-09T09:51:43;28.10;;;18.83;;
35330;SDS011;21441;52.190;20.910;2022-09-09T09:54:15;26.38;;;18.92;;
35330;SDS011;21441;52.190;20.910;2022-09-09T09:56:48;30.63;;;19.55;;
35330;SDS011;21441;52.190;20.910;2022-09-09T09:59:23;28.10;;;19.15;;
35330;SDS011;21441;52.190;20.910;2022-09-09T10:02:17;28.13;;;19.52;;
35330;SDS011;21441;52.190;20.910;2022-09-09T10:04:46;27.27;;;19.20;;
35330;SDS011;21441;52.190;20.910;2022-09-09T10:07:17;30.00;;;20.23;;
35330;SDS011;21441;52.190;20.910;2022-09-09T10:09:45;29.65;;;18.48;;
35330;SDS011;21441;52.190;20.910;2022-09-09T10:12:20;31.13;;;19.50;;
35330;SDS011;21441;52.190;20.910;2022-09-09T10:15:01;28.70;;;20.63;;
35330;SDS011;21441;52.190;20.910;2022-09-09T10:17:35;30.45;;;19.90;;
35330;SDS011;21441;52.190;20.910;2022-09-09T10:20:17;32.40;;;21.02;;
35330;SDS011;21441;52.190;20.910;2022-09-09T10:22:58;34.40;;;23.35;;
35330;SDS011;21441;52.190;20.910;2022-09-09T10:25:38;33.35;;;23.25;;
35330;SDS011;21441;52.190;20.910;2022-09-09T10:31:11;31.35;;;20.70;;
35330;SDS011;21441;52.190;20.910;2022-09-09T10:33:48;33.28;;;20.92;;
35330;SDS011;21441;52.190;20.910;2022-09-09T10:36:19;34.45;;;21.92;;
35330;SDS011;21441;52.190;20.910;2022-09-09T10:38:49;31.58;;;20.50;;
35330;SDS011;21441;52.190;20.910;2022-09-09T10:41:26;33.78;;;21.38;;
35330;SDS011;21441;52.190;20.910;2022-09-09T10:44:17;38.92;;;24.23;;
35330;SDS011;21441;52.190;20.910;2022-09-09T10:46:58;32.00;;;21.98;;
35330;SDS011;21441;52.190;20.910;2022-09-09T10:49:54;39.72;;;24.25;;
35330;SDS011;21441;52.190;20.910;2022-09-09T10:52:32;34.63;;;23.48;;
35330;SDS011;21441;52.190;20.910;2022-09-09T10:55:08;41.28;;;23.00;;
35330;SDS011;21441;52.190;20.910;2022-09-09T10:57:40;37.58;;;24.10;;
35330;SDS011;21441;52.190;20.910;2022-09-09T11:00:14;43.78;;;27.13;;
35330;SDS011;21441;52.190;20.910;2022-09-09T11:02:46;40.03;;;25.15;;
35330;SDS011;21441;52.190;20.910;2022-09-09T11:05:18;34.38;;;22.52;;
35330;SDS011;21441;52.190;20.910;2022-09-09T11:07:47;34.47;;;24.30;;
35330;SDS011;21441;52.190;20.910;2022-09-09T11:10:21;43.67;;;24.42;;
35330;SDS011;21441;52.190;20.910;2022-09-09T11:12:51;40.10;;;24.30;;
35330;SDS011;21441;52.190;20.910;2022-09-09T11:15:22;40.40;;;24.50;;
35330;SDS011;21441;52.190;20.910;2022-09-09T11:17:58;35.45;;;24.42;;
35330;SDS011;21441;52.190;20.910;2022-09-09T11:20:28;39.25;;;24.38;;
35330;SDS011;21441;52.190;20.910;2022-09-09T11:22:55;42.03;;;25.48;;
35330;SDS011;21441;52.190;20.910;2022-09-09T11:25:28;39.72;;;24.75;;
35330;SDS011;21441;52.190;20.910;2022-09-09T11:28:06;40.38;;;24.95;;
35330;SDS011;21441;52.190;20.910;2022-09-09T11:30:47;38.80;;;24.70;;
35330;SDS011;21441;52.190;20.910;2022-09-09T11:36:54;41.72;;;25.20;;
35330;SDS011;21441;52.190;20.910;2022-09-09T11:39:38;43.45;;;26.85;;
35330;SDS011;21441;52.190;20.910;2022-09-09T11:42:15;42.08;;;26.33;;
35330;SDS011;21441;52.190;20.910;2022-09-09T11:44:45;45.80;;;25.88;;
35330;SDS011;21441;52.190;20.910;2022-09-09T11:47:16;47.05;;;27.60;;
35330;SDS011;21441;52.190;20.910;2022-09-09T11:49:47;39.72;;;27.25;;
35330;SDS011;21441;52.190;20.910;2022-09-09T11:52:21;43.40;;;29.05;;
35330;SDS011;21441;52.190;20.910;2022-09-09T11:55:08;43.38;;;27.17;;
35330;SDS011;21441;52.190;20.910;2022-09-09T11:57:37;45.25;;;26.08;;
35330;SDS011;21441;52.190;20.910;2022-09-09T12:00:06;43.20;;;27.60;;
35330;SDS011;21441;52.190;20.910;2022-09-09T12:02:33;45.97;;;28.27;;
35330;SDS011;21441;52.190;20.910;2022-09-09T12:05:02;47.78;;;27.67;;
35330;SDS011;21441;52.190;20.910;2022-09-09T12:07:36;49.97;;;28.33;;
35330;SDS011;21441;52.190;20.910;2022-09-09T12:10:19;47.13;;;25.80;;
35330;SDS011;21441;52.190;20.910;2022-09-09T12:12:49;44.50;;;27.58;;
35330;SDS011;21441;52.190;20.910;2022-09-09T12:15:20;53.92;;;29.33;;
35330;SDS011;21441;52.190;20.910;2022-09-09T12:17:57;57.75;;;31.80;;
35330;SDS011;21441;52.190;20.910;2022-09-09T12:20:30;56.00;;;30.80;;
35330;SDS011;21441;52.190;20.910;2022-09-09T12:23:04;54.88;;;32.38;;
35330;SDS011;21441;52.190;20.910;2022-09-09T12:25:48;55.85;;;33.55;;
35330;SDS011;21441;52.190;20.910;2022-09-09T12:28:25;53.83;;;31.33;;
35330;SDS011;21441;52.190;20.910;2022-09-09T12:31:00;47.40;;;29.33;;
35330;SDS011;21441;52.190;20.910;2022-09-09T12:33:34;47.70;;;29.02;;
35330;SDS011;21441;52.190;20.910;2022-09-09T12:36:02;51.17;;;30.40;;
35330;SDS011;21441;52.190;20.910;2022-09-09T12:38:32;52.80;;;31.88;;
35330;SDS011;21441;52.190;20.910;2022-09-09T12:41:02;51.92;;;29.42;;
35330;SDS011;21441;52.190;20.910;2022-09-09T12:43:29;49.80;;;29.67;;
35330;SDS011;21441;52.190;20.910;2022-09-09T12:45:57;51.67;;;31.27;;
35330;SDS011;21441;52.190;20.910;2022-09-09T12:48:31;48.95;;;28.10;;
35330;SDS011;21441;52.190;20.910;2022-09-09T12:51:02;50.17;;;28.40;;
35330;SDS011;21441;52.190;20.910;2022-09-09T12:53:33;54.57;;;31.47;;
35330;SDS011;21441;52.190;20.910;2022-09-09T12:56:03;56.35;;;33.78;;
35330;SDS011;21441;52.190;20.910;2022-09-09T12:58:33;54.22;;;31.63;;
35330;SDS011;21441;52.190;20.910;2022-09-09T13:01:02;52.30;;;31.08;;
35330;SDS011;21441;52.190;20.910;2022-09-09T13:03:31;58.45;;;32.10;;
35330;SDS011;21441;52.190;20.910;2022-09-09T13:06:10;54.92;;;32.03;;
35330;SDS011;21441;52.190;20.910;2022-09-09T13:08:41;52.85;;;30.00;;
35330;SDS011;21441;52.190;20.910;2022-09-09T13:11:10;57.33;;;32.07;;
35330;SDS011;21441;52.190;20.910;2022-09-09T13:13:42;54.78;;;32.58;;
35330;SDS011;21441;52.190;20.910;2022-09-09T13:16:18;48.72;;;30.25;;
35330;SDS011;21441;52.190;20.910;2022-09-09T13:18:46;49.80;;;29.73;;
35330;SDS011;21441;52.190;20.910;2022-09-09T13:21:14;54.88;;;31.30;;
35330;SDS011;21441;52.190;20.910;2022-09-09T13:23:47;57.55;;;31.05;;
35330;SDS011;21441;52.190;20.910;2022-09-09T13:26:20;52.50;;;30.70;;
35330;SDS011;21441;52.190;20.910;2022-09-09T13:28:48;51.05;;;30.70;;
35330;SDS011;21441;52.190;20.910;2022-09-09T13:31:20;52.78;;;30.95;;
35330;SDS011;21441;52.190;20.910;2022-09-09T13:33:48;51.13;;;29.90;;
35330;SDS011;21441;52.190;20.910;2022-09-09T13:36:15;52.72;;;29.70;;
35330;SDS011;21441;52.190;20.910;2022-09-09T13:38:54;53.42;;;31.60;;
35330;SDS011;21441;52.190;20.910;2022-09-09T13:41:23;58.90;;;32.80;;
35330;SDS011;21441;52.190;20.910;2022-09-09T13:43:52;62.15;;;33.20;;
35330;SDS011;21441;52.190;20.910;2022-09-09T13:46:23;61.42;;;33.65;;
35330;SDS011;21441;52.190;20.910;2022-09-09T13:48:55;66.00;;;32.85;;
35330;SDS011;21441;52.190;20.910;2022-09-09T13:51:28;67.13;;;33.83;;
35330;SDS011;21441;52.190;20.910;2022-09-09T13:54:00;61.30;;;32.80;;
35330;SDS011;21441;52.190;20.910;2022-09-09T13:56:27;63.55;;;33.13;;
35330;SDS011;21441;52.190;20.910;2022-09-09T13:58:54;56.92;;;31.67;;
35330;SDS011;21441;52.190;20.910;2022-09-09T14:01:23;58.28;;;31.63;;
35330;SDS011;21441;52.190;20.910;2022-09-09T14:03:50;58.20;;;32.28;;
35330;SDS011;21441;52.190;20.910;2022-09-09T14:06:18;55.05;;;31.30;;
35330;SDS011;21441;52.190;20.910;2022-09-09T14:08:47;55.58;;;32.70;;
35330;SDS011;21441;52.190;20.910;2022-09-09T14:11:16;63.50;;;31.88;;
35330;SDS011;21441;52.190;20.910;2022-09-09T14:13:44;55.25;;;31.13;;
35330;SDS011;21441;52.190;20.910;2022-09-09T14:16:12;56.97;;;34.42;;
35330;SDS011;21441;52.190;20.910;2022-09-09T14:18:38;63.35;;;35.00;;
35330;SDS011;21441;52.190;20.910;2022-09-09T14:21:06;63.78;;;32.28;;
35330;SDS011;21441;52.190;20.910;2022-09-09T14:23:34;59.45;;;30.10;;
35330;SDS011;21441;52.190;20.910;2022-09-09T14:26:01;60.10;;;32.90;;
35330;SDS011;21441;52.190;20.910;2022-09-09T14:28:29;49.55;;;29.65;;
35330;SDS011;21441;52.190;20.910;2022-09-09T14:30:59;49.33;;;28.55;;
35330;SDS011;21441;52.190;20.910;2022-09-09T14:33:27;51.65;;;28.40;;
35330;SDS011;21441;52.190;20.910;2022-09-09T14:35:55;50.88;;;28.77;;
35330;SDS011;21441;52.190;20.910;2022-09-09T14:38:23;55.30;;;31.42;;
35330;SDS011;21441;52.190;20.910;2022-09-09T14:40:50;52.47;;;29.00;;
35330;SDS011;21441;52.190;20.910;2022-09-09T14:43:17;48.88;;;27.63;;
35330;SDS011;21441;52.190;20.910;2022-09-09T14:45:45;46.17;;;27.98;;
35330;SDS011;21441;52.190;20.910;2022-09-09T14:48:13;47.67;;;27.33;;
35330;SDS011;21441;52.190;20.910;2022-09-09T14:50:41;50.38;;;28.35;;
35330;SDS011;21441;52.190;20.910;2022-09-09T14:53:08;45.20;;;26.38;;